sensor_id;sensor_type;location;lat;lon;timestamp;P1;durP1;ratioP1;P2;durP2;ratioP2
36599;SDS011;35385;55.668;37.508;2023-01-29T00:00:08;19.30;;;11.10;;
36599;SDS011;35385;55.668;37.508;2023-01-29T00:01:09;18.42;;;10.45;;
36599;SDS011;35385;55.668;37.508;2023-01-29T00:02:10;17.88;;;9.30;;
36599;SDS011;35385;55.668;37.508;2023-01-29T00:03:11;15.63;;;8.57;;
36599;SDS011;35385;55.668;37.508;2023-01-29T00:04:11;16.13;;;9.33;;
36599;SDS011;35385;55.668;37.508;2023-01-29T00:05:12;16.47;;;8.43;;
36599;SDS011;35385;55.668;37.508;2023-01-29T00:06:13;16.10;;;9.50;;
36599;SDS011;35385;55.668;37.508;2023-01-29T00:07:13;13.73;;;8.43;;
36599;SDS011;35385;55.668;37.508;2023-01-29T00:08:14;15.33;;;8.47;;
36599;SDS011;35385;55.668;37.508;2023-01-29T00:09:14;17.23;;;8.10;;
36599;SDS011;35385;55.668;37.508;2023-01-29T00:10:15;15.07;;;8.63;;
36599;SDS011;35385;55.668;37.508;2023-01-29T00:11:16;17.67;;;8.57;;
36599;SDS011;35385;55.668;37.508;2023-01-29T00:12:17;16.70;;;9.45;;
36599;SDS011;35385;55.668;37.508;2023-01-29T00:13:17;13.17;;;7.77;;
36599;SDS011;35385;55.668;37.508;2023-01-29T00:14:18;15.48;;;7.85;;
36599;SDS011;35385;55.668;37.508;2023-01-29T00:15:19;13.00;;;7.35;;
36599;SDS011;35385;55.668;37.508;2023-01-29T00:16:19;16.00;;;8.33;;
36599;SDS011;35385;55.668;37.508;2023-01-29T00:17:20;14.60;;;8.30;;
36599;SDS011;35385;55.668;37.508;2023-01-29T00:18:21;16.50;;;8.80;;
36599;SDS011;35385;55.668;37.508;2023-01-29T00:19:21;14.90;;;8.27;;
36599;SDS011;35385;55.668;37.508;2023-01-29T00:20:22;16.70;;;9.30;;
36599;SDS011;35385;55.668;37.508;2023-01-29T00:21:23;17.35;;;9.13;;
36599;SDS011;35385;55.668;37.508;2023-01-29T00:22:23;13.33;;;8.30;;
36599;SDS011;35385;55.668;37.508;2023-01-29T00:23:24;16.33;;;9.45;;
36599;SDS011;35385;55.668;37.508;2023-01-29T00:24:25;19.60;;;10.73;;
36599;SDS011;35385;55.668;37.508;2023-01-29T00:25:25;18.00;;;10.20;;
36599;SDS011;35385;55.668;37.508;2023-01-29T00:26:26;16.43;;;9.53;;
36599;SDS011;35385;55.668;37.508;2023-01-29T00:27:28;15.80;;;9.15;;
36599;SDS011;35385;55.668;37.508;2023-01-29T00:28:28;17.00;;;9.93;;
36599;SDS011;35385;55.668;37.508;2023-01-29T00:29:29;18.37;;;10.20;;
36599;SDS011;35385;55.668;37.508;2023-01-29T00:30:29;16.50;;;9.67;;
36599;SDS011;35385;55.668;37.508;2023-01-29T00:31:30;18.43;;;11.00;;
36599;SDS011;35385;55.668;37.508;2023-01-29T00:32:31;18.57;;;10.27;;
36599;SDS011;35385;55.668;37.508;2023-01-29T00:33:31;20.93;;;11.07;;
36599;SDS011;35385;55.668;37.508;2023-01-29T00:34:32;24.33;;;11.03;;
36599;SDS011;35385;55.668;37.508;2023-01-29T00:35:32;20.93;;;9.93;;
36599;SDS011;35385;55.668;37.508;2023-01-29T00:36:33;18.33;;;10.40;;
36599;SDS011;35385;55.668;37.508;2023-01-29T00:37:34;17.13;;;9.43;;
36599;SDS011;35385;55.668;37.508;2023-01-29T00:38:35;17.38;;;10.15;;
36599;SDS011;35385;55.668;37.508;2023-01-29T00:39:36;17.23;;;9.63;;
36599;SDS011;35385;55.668;37.508;2023-01-29T00:40:39;16.00;;;9.95;;
36599;SDS011;35385;55.668;37.508;2023-01-29T00:42:09;17.10;;;9.82;;
36599;SDS011;35385;55.668;37.508;2023-01-29T00:43:28;19.30;;;10.40;;
36599;SDS011;35385;55.668;37.508;2023-01-29T00:44:48;18.83;;;11.60;;
36599;SDS011;35385;55.668;37.508;2023-01-29T00:45:57;18.27;;;11.10;;
36599;SDS011;35385;55.668;37.508;2023-01-29T00:46:58;18.57;;;11.20;;
36599;SDS011;35385;55.668;37.508;2023-01-29T00:47:59;21.00;;;12.23;;
36599;SDS011;35385;55.668;37.508;2023-01-29T00:48:59;20.57;;;12.67;;
36599;SDS011;35385;55.668;37.508;2023-01-29T00:50:00;19.90;;;12.40;;
36599;SDS011;35385;55.668;37.508;2023-01-29T00:51:02;18.13;;;11.52;;
36599;SDS011;35385;55.668;37.508;2023-01-29T00:52:03;21.02;;;12.68;;
36599;SDS011;35385;55.668;37.508;2023-01-29T00:53:22;20.90;;;12.63;;
36599;SDS011;35385;55.668;37.508;2023-01-29T00:54:22;23.07;;;13.63;;
36599;SDS011;35385;55.668;37.508;2023-01-29T00:55:23;26.83;;;14.47;;
36599;SDS011;35385;55.668;37.508;2023-01-29T00:56:24;21.80;;;13.63;;
36599;SDS011;35385;55.668;37.508;2023-01-29T00:57:25;21.95;;;14.73;;
36599;SDS011;35385;55.668;37.508;2023-01-29T00:58:27;20.38;;;13.32;;
36599;SDS011;35385;55.668;37.508;2023-01-29T00:59:33;22.35;;;14.30;;
36599;SDS011;35385;55.668;37.508;2023-01-29T01:00:33;21.13;;;14.70;;
36599;SDS011;35385;55.668;37.508;2023-01-29T01:01:34;23.00;;;14.47;;
36599;SDS011;35385;55.668;37.508;2023-01-29T01:02:53;23.13;;;15.25;;
36599;SDS011;35385;55.668;37.508;2023-01-29T01:04:07;22.40;;;14.52;;
36599;SDS011;35385;55.668;37.508;2023-01-29T01:05:09;21.80;;;14.98;;
36599;SDS011;35385;55.668;37.508;2023-01-29T01:06:13;23.67;;;15.27;;
36599;SDS011;35385;55.668;37.508;2023-01-29T01:07:13;22.23;;;14.63;;
36599;SDS011;35385;55.668;37.508;2023-01-29T01:08:14;22.23;;;14.63;;
36599;SDS011;35385;55.668;37.508;2023-01-29T01:09:36;21.52;;;14.85;;
36599;SDS011;35385;55.668;37.508;2023-01-29T01:10:59;20.52;;;14.25;;
36599;SDS011;35385;55.668;37.508;2023-01-29T01:12:04;21.60;;;13.93;;
36599;SDS011;35385;55.668;37.508;2023-01-29T01:13:05;21.07;;;14.30;;
36599;SDS011;35385;55.668;37.508;2023-01-29T01:15:07;22.48;;;13.82;;
36599;SDS011;35385;55.668;37.508;2023-01-29T01:17:13;24.63;;;14.20;;
36599;SDS011;35385;55.668;37.508;2023-01-29T01:18:14;19.52;;;12.55;;
36599;SDS011;35385;55.668;37.508;2023-01-29T01:19:15;19.40;;;12.63;;
36599;SDS011;35385;55.668;37.508;2023-01-29T01:20:16;17.63;;;11.50;;
36599;SDS011;35385;55.668;37.508;2023-01-29T01:21:16;16.93;;;11.33;;
36599;SDS011;35385;55.668;37.508;2023-01-29T01:22:17;13.83;;;8.70;;
36599;SDS011;35385;55.668;37.508;2023-01-29T01:23:18;11.50;;;7.93;;
36599;SDS011;35385;55.668;37.508;2023-01-29T01:24:19;10.60;;;6.78;;
36599;SDS011;35385;55.668;37.508;2023-01-29T01:25:20;12.87;;;8.27;;
36599;SDS011;35385;55.668;37.508;2023-01-29T01:26:21;12.00;;;7.72;;
36599;SDS011;35385;55.668;37.508;2023-01-29T01:27:22;10.03;;;6.90;;
36599;SDS011;35385;55.668;37.508;2023-01-29T01:28:23;9.55;;;6.03;;
36599;SDS011;35385;55.668;37.508;2023-01-29T01:29:23;9.70;;;6.00;;
36599;SDS011;35385;55.668;37.508;2023-01-29T01:30:24;8.50;;;5.73;;
36599;SDS011;35385;55.668;37.508;2023-01-29T01:31:25;8.25;;;5.68;;
36599;SDS011;35385;55.668;37.508;2023-01-29T01:32:26;8.57;;;5.50;;
36599;SDS011;35385;55.668;37.508;2023-01-29T01:33:26;7.83;;;5.40;;
36599;SDS011;35385;55.668;37.508;2023-01-29T01:34:27;8.90;;;5.63;;
36599;SDS011;35385;55.668;37.508;2023-01-29T01:35:28;8.00;;;5.15;;
36599;SDS011;35385;55.668;37.508;2023-01-29T01:36:28;7.63;;;5.30;;
36599;SDS011;35385;55.668;37.508;2023-01-29T01:37:31;6.95;;;4.95;;
36599;SDS011;35385;55.668;37.508;2023-01-29T01:38:32;8.13;;;5.38;;
36599;SDS011;35385;55.668;37.508;2023-01-29T01:39:33;7.90;;;5.00;;
36599;SDS011;35385;55.668;37.508;2023-01-29T01:40:33;8.13;;;5.23;;
36599;SDS011;35385;55.668;37.508;2023-01-29T01:41:34;6.87;;;4.83;;
36599;SDS011;35385;55.668;37.508;2023-01-29T01:42:34;8.23;;;5.57;;
36599;SDS011;35385;55.668;37.508;2023-01-29T01:44:56;8.52;;;5.38;;
36599;SDS011;35385;55.668;37.508;2023-01-29T01:46:00;8.95;;;5.22;;
36599;SDS011;35385;55.668;37.508;2023-01-29T01:47:00;6.80;;;4.97;;
36599;SDS011;35385;55.668;37.508;2023-01-29T01:48:09;7.17;;;5.17;;
36599;SDS011;35385;55.668;37.508;2023-01-29T01:49:14;8.43;;;5.68;;
36599;SDS011;35385;55.668;37.508;2023-01-29T01:50:23;7.15;;;4.60;;
36599;SDS011;35385;55.668;37.508;2023-01-29T01:51:47;6.93;;;4.43;;
36599;SDS011;35385;55.668;37.508;2023-01-29T01:52:52;5.80;;;4.00;;
36599;SDS011;35385;55.668;37.508;2023-01-29T01:55:18;7.17;;;4.83;;
36599;SDS011;35385;55.668;37.508;2023-01-29T01:56:24;7.00;;;4.85;;
36599;SDS011;35385;55.668;37.508;2023-01-29T01:57:32;5.70;;;3.65;;
36599;SDS011;35385;55.668;37.508;2023-01-29T01:58:34;5.63;;;3.73;;
36599;SDS011;35385;55.668;37.508;2023-01-29T01:59:42;5.75;;;3.88;;
36599;SDS011;35385;55.668;37.508;2023-01-29T02:00:47;5.78;;;4.00;;
36599;SDS011;35385;55.668;37.508;2023-01-29T02:01:49;6.10;;;4.23;;
36599;SDS011;35385;55.668;37.508;2023-01-29T02:02:53;4.78;;;3.60;;
36599;SDS011;35385;55.668;37.508;2023-01-29T02:04:14;4.93;;;3.30;;
36599;SDS011;35385;55.668;37.508;2023-01-29T02:05:35;5.85;;;4.15;;
36599;SDS011;35385;55.668;37.508;2023-01-29T02:06:57;5.35;;;2.95;;
36599;SDS011;35385;55.668;37.508;2023-01-29T02:08:28;4.68;;;3.40;;
36599;SDS011;35385;55.668;37.508;2023-01-29T02:11:07;4.15;;;2.88;;
36599;SDS011;35385;55.668;37.508;2023-01-29T02:12:10;3.95;;;2.95;;
36599;SDS011;35385;55.668;37.508;2023-01-29T02:13:12;4.57;;;3.40;;
36599;SDS011;35385;55.668;37.508;2023-01-29T02:14:17;4.88;;;3.20;;
36599;SDS011;35385;55.668;37.508;2023-01-29T02:15:18;4.27;;;2.87;;
36599;SDS011;35385;55.668;37.508;2023-01-29T02:16:21;5.17;;;3.10;;
36599;SDS011;35385;55.668;37.508;2023-01-29T02:17:22;4.68;;;3.40;;
36599;SDS011;35385;55.668;37.508;2023-01-29T02:18:23;4.07;;;3.17;;
36599;SDS011;35385;55.668;37.508;2023-01-29T02:19:31;4.80;;;3.20;;
36599;SDS011;35385;55.668;37.508;2023-01-29T02:28:50;5.17;;;2.83;;
36599;SDS011;35385;55.668;37.508;2023-01-29T02:31:35;3.90;;;2.75;;
36599;SDS011;35385;55.668;37.508;2023-01-29T02:32:55;3.88;;;2.83;;
36599;SDS011;35385;55.668;37.508;2023-01-29T02:34:26;4.70;;;3.17;;
36599;SDS011;35385;55.668;37.508;2023-01-29T02:37:08;5.20;;;2.63;;
36599;SDS011;35385;55.668;37.508;2023-01-29T02:38:15;3.55;;;2.65;;
36599;SDS011;35385;55.668;37.508;2023-01-29T02:40:28;5.00;;;2.67;;
36599;SDS011;35385;55.668;37.508;2023-01-29T02:41:34;5.13;;;3.30;;
36599;SDS011;35385;55.668;37.508;2023-01-29T02:42:47;5.00;;;3.00;;
36599;SDS011;35385;55.668;37.508;2023-01-29T02:44:02;4.40;;;3.00;;
36599;SDS011;35385;55.668;37.508;2023-01-29T02:45:13;3.78;;;2.90;;
36599;SDS011;35385;55.668;37.508;2023-01-29T02:47:33;4.25;;;3.00;;
36599;SDS011;35385;55.668;37.508;2023-01-29T02:48:40;5.13;;;2.97;;
36599;SDS011;35385;55.668;37.508;2023-01-29T02:51:18;5.15;;;2.55;;
36599;SDS011;35385;55.668;37.508;2023-01-29T02:52:27;4.22;;;2.83;;
36599;SDS011;35385;55.668;37.508;2023-01-29T02:55:20;4.15;;;2.67;;
36599;SDS011;35385;55.668;37.508;2023-01-29T02:56:43;4.20;;;2.25;;
36599;SDS011;35385;55.668;37.508;2023-01-29T02:58:02;3.22;;;2.40;;
36599;SDS011;35385;55.668;37.508;2023-01-29T02:59:15;4.70;;;2.50;;
36599;SDS011;35385;55.668;37.508;2023-01-29T03:00:22;3.10;;;2.13;;
36599;SDS011;35385;55.668;37.508;2023-01-29T03:02:09;3.72;;;2.45;;
36599;SDS011;35385;55.668;37.508;2023-01-29T03:03:16;3.47;;;2.30;;
36599;SDS011;35385;55.668;37.508;2023-01-29T03:04:24;4.43;;;2.45;;
36599;SDS011;35385;55.668;37.508;2023-01-29T03:05:34;4.25;;;2.38;;
36599;SDS011;35385;55.668;37.508;2023-01-29T03:06:45;4.43;;;2.92;;
36599;SDS011;35385;55.668;37.508;2023-01-29T03:07:52;3.67;;;2.88;;
36599;SDS011;35385;55.668;37.508;2023-01-29T03:09:01;4.28;;;3.10;;
36599;SDS011;35385;55.668;37.508;2023-01-29T03:10:08;4.53;;;3.08;;
36599;SDS011;35385;55.668;37.508;2023-01-29T03:11:17;4.40;;;3.00;;
36599;SDS011;35385;55.668;37.508;2023-01-29T03:12:20;5.00;;;3.37;;
36599;SDS011;35385;55.668;37.508;2023-01-29T03:13:38;5.30;;;3.08;;
36599;SDS011;35385;55.668;37.508;2023-01-29T03:14:42;5.13;;;3.33;;
36599;SDS011;35385;55.668;37.508;2023-01-29T03:17:14;5.40;;;3.40;;
36599;SDS011;35385;55.668;37.508;2023-01-29T03:18:18;3.97;;;3.05;;
36599;SDS011;35385;55.668;37.508;2023-01-29T03:20:57;4.47;;;2.90;;
36599;SDS011;35385;55.668;37.508;2023-01-29T03:22:24;4.00;;;2.67;;
36599;SDS011;35385;55.668;37.508;2023-01-29T03:23:27;4.15;;;2.75;;
36599;SDS011;35385;55.668;37.508;2023-01-29T03:24:51;4.60;;;2.45;;
36599;SDS011;35385;55.668;37.508;2023-01-29T03:26:14;3.35;;;2.50;;
36599;SDS011;35385;55.668;37.508;2023-01-29T03:27:43;5.30;;;2.80;;
36599;SDS011;35385;55.668;37.508;2023-01-29T03:29:05;4.50;;;2.67;;
36599;SDS011;35385;55.668;37.508;2023-01-29T03:30:27;4.63;;;2.45;;
36599;SDS011;35385;55.668;37.508;2023-01-29T03:31:48;4.55;;;2.72;;
36599;SDS011;35385;55.668;37.508;2023-01-29T03:33:07;3.60;;;2.60;;
36599;SDS011;35385;55.668;37.508;2023-01-29T03:34:14;4.10;;;2.80;;
36599;SDS011;35385;55.668;37.508;2023-01-29T03:35:24;4.10;;;2.78;;
36599;SDS011;35385;55.668;37.508;2023-01-29T03:37:45;3.83;;;2.78;;
36599;SDS011;35385;55.668;37.508;2023-01-29T03:38:47;4.47;;;2.83;;
36599;SDS011;35385;55.668;37.508;2023-01-29T03:39:48;5.30;;;2.90;;
36599;SDS011;35385;55.668;37.508;2023-01-29T03:40:52;7.30;;;3.50;;
36599;SDS011;35385;55.668;37.508;2023-01-29T03:47:16;4.18;;;2.95;;
36599;SDS011;35385;55.668;37.508;2023-01-29T03:48:47;4.45;;;2.97;;
36599;SDS011;35385;55.668;37.508;2023-01-29T03:49:53;4.70;;;3.20;;
36599;SDS011;35385;55.668;37.508;2023-01-29T03:51:24;4.20;;;2.72;;
36599;SDS011;35385;55.668;37.508;2023-01-29T03:52:38;4.80;;;2.97;;
36599;SDS011;35385;55.668;37.508;2023-01-29T03:56:17;4.32;;;2.72;;
36599;SDS011;35385;55.668;37.508;2023-01-29T03:57:29;3.80;;;2.63;;
36599;SDS011;35385;55.668;37.508;2023-01-29T03:58:39;4.35;;;2.85;;
36599;SDS011;35385;55.668;37.508;2023-01-29T04:02:28;5.80;;;3.20;;
36599;SDS011;35385;55.668;37.508;2023-01-29T04:03:36;4.38;;;2.88;;
36599;SDS011;35385;55.668;37.508;2023-01-29T04:04:42;4.53;;;2.40;;
36599;SDS011;35385;55.668;37.508;2023-01-29T04:05:50;4.28;;;3.13;;
36599;SDS011;35385;55.668;37.508;2023-01-29T04:07:16;4.60;;;3.10;;
36599;SDS011;35385;55.668;37.508;2023-01-29T04:08:27;4.13;;;2.72;;
36599;SDS011;35385;55.668;37.508;2023-01-29T04:09:30;4.30;;;2.90;;
36599;SDS011;35385;55.668;37.508;2023-01-29T04:10:35;5.22;;;3.05;;
36599;SDS011;35385;55.668;37.508;2023-01-29T04:11:41;4.88;;;3.00;;
36599;SDS011;35385;55.668;37.508;2023-01-29T04:12:54;6.13;;;3.30;;
36599;SDS011;35385;55.668;37.508;2023-01-29T04:13:59;6.00;;;3.13;;
36599;SDS011;35385;55.668;37.508;2023-01-29T04:15:00;4.45;;;3.08;;
36599;SDS011;35385;55.668;37.508;2023-01-29T04:16:01;3.63;;;3.10;;
36599;SDS011;35385;55.668;37.508;2023-01-29T04:17:12;5.63;;;3.60;;
36599;SDS011;35385;55.668;37.508;2023-01-29T04:18:16;5.18;;;3.47;;
36599;SDS011;35385;55.668;37.508;2023-01-29T04:19:17;5.13;;;3.23;;
36599;SDS011;35385;55.668;37.508;2023-01-29T04:20:19;6.40;;;3.70;;
36599;SDS011;35385;55.668;37.508;2023-01-29T04:21:20;5.80;;;3.60;;
36599;SDS011;35385;55.668;37.508;2023-01-29T04:22:31;5.30;;;3.28;;
36599;SDS011;35385;55.668;37.508;2023-01-29T04:23:34;5.90;;;4.22;;
36599;SDS011;35385;55.668;37.508;2023-01-29T04:24:34;5.20;;;3.67;;
36599;SDS011;35385;55.668;37.508;2023-01-29T04:25:45;5.07;;;3.65;;
36599;SDS011;35385;55.668;37.508;2023-01-29T04:28:30;6.65;;;3.97;;
36599;SDS011;35385;55.668;37.508;2023-01-29T04:31:05;5.05;;;3.65;;
36599;SDS011;35385;55.668;37.508;2023-01-29T04:39:21;4.30;;;3.40;;
36599;SDS011;35385;55.668;37.508;2023-01-29T04:47:04;6.13;;;4.10;;
36599;SDS011;35385;55.668;37.508;2023-01-29T04:48:32;8.38;;;4.57;;
36599;SDS011;35385;55.668;37.508;2023-01-29T04:50:58;6.25;;;3.70;;
36599;SDS011;35385;55.668;37.508;2023-01-29T04:53:14;7.18;;;4.35;;
36599;SDS011;35385;55.668;37.508;2023-01-29T04:56:42;6.78;;;4.80;;
36599;SDS011;35385;55.668;37.508;2023-01-29T04:58:04;5.43;;;4.30;;
36599;SDS011;35385;55.668;37.508;2023-01-29T04:59:31;8.70;;;4.90;;
36599;SDS011;35385;55.668;37.508;2023-01-29T05:00:37;7.90;;;4.85;;
36599;SDS011;35385;55.668;37.508;2023-01-29T05:01:42;9.30;;;4.72;;
36599;SDS011;35385;55.668;37.508;2023-01-29T05:02:43;7.25;;;5.03;;
36599;SDS011;35385;55.668;37.508;2023-01-29T05:03:46;8.50;;;5.22;;
36599;SDS011;35385;55.668;37.508;2023-01-29T05:04:51;7.38;;;5.18;;
36599;SDS011;35385;55.668;37.508;2023-01-29T05:05:53;7.65;;;5.30;;
36599;SDS011;35385;55.668;37.508;2023-01-29T05:06:57;6.80;;;5.10;;
36599;SDS011;35385;55.668;37.508;2023-01-29T05:08:03;8.88;;;5.60;;
36599;SDS011;35385;55.668;37.508;2023-01-29T05:09:05;8.05;;;5.38;;
36599;SDS011;35385;55.668;37.508;2023-01-29T05:10:09;8.35;;;5.55;;
36599;SDS011;35385;55.668;37.508;2023-01-29T05:11:11;9.15;;;5.75;;
36599;SDS011;35385;55.668;37.508;2023-01-29T05:12:13;8.63;;;5.47;;
36599;SDS011;35385;55.668;37.508;2023-01-29T05:13:17;8.95;;;6.03;;
36599;SDS011;35385;55.668;37.508;2023-01-29T05:14:19;7.90;;;5.28;;
36599;SDS011;35385;55.668;37.508;2023-01-29T05:15:40;10.57;;;5.93;;
36599;SDS011;35385;55.668;37.508;2023-01-29T05:16:48;8.40;;;5.40;;
36599;SDS011;35385;55.668;37.508;2023-01-29T05:17:52;7.95;;;5.60;;
36599;SDS011;35385;55.668;37.508;2023-01-29T05:18:53;7.93;;;5.50;;
36599;SDS011;35385;55.668;37.508;2023-01-29T05:19:54;9.27;;;5.88;;
36599;SDS011;35385;55.668;37.508;2023-01-29T05:20:55;10.80;;;5.90;;
36599;SDS011;35385;55.668;37.508;2023-01-29T05:21:59;7.03;;;4.85;;
36599;SDS011;35385;55.668;37.508;2023-01-29T05:22:59;8.65;;;6.18;;
36599;SDS011;35385;55.668;37.508;2023-01-29T05:24:11;10.20;;;6.33;;
36599;SDS011;35385;55.668;37.508;2023-01-29T05:25:21;9.50;;;6.03;;
36599;SDS011;35385;55.668;37.508;2023-01-29T05:26:24;9.43;;;6.15;;
36599;SDS011;35385;55.668;37.508;2023-01-29T05:27:45;10.40;;;6.53;;
36599;SDS011;35385;55.668;37.508;2023-01-29T05:29:06;11.88;;;6.72;;
36599;SDS011;35385;55.668;37.508;2023-01-29T05:30:07;10.17;;;7.23;;
36599;SDS011;35385;55.668;37.508;2023-01-29T05:31:09;9.88;;;6.55;;
36599;SDS011;35385;55.668;37.508;2023-01-29T05:32:10;10.17;;;6.57;;
36599;SDS011;35385;55.668;37.508;2023-01-29T05:33:14;10.40;;;6.27;;
36599;SDS011;35385;55.668;37.508;2023-01-29T05:34:15;9.85;;;6.22;;
36599;SDS011;35385;55.668;37.508;2023-01-29T05:35:16;10.57;;;6.80;;
36599;SDS011;35385;55.668;37.508;2023-01-29T05:36:16;10.73;;;6.40;;
36599;SDS011;35385;55.668;37.508;2023-01-29T05:37:17;13.07;;;7.40;;
36599;SDS011;35385;55.668;37.508;2023-01-29T05:38:18;10.90;;;6.83;;
36599;SDS011;35385;55.668;37.508;2023-01-29T05:39:19;9.95;;;6.45;;
36599;SDS011;35385;55.668;37.508;2023-01-29T05:40:20;10.02;;;6.35;;
36599;SDS011;35385;55.668;37.508;2023-01-29T05:41:21;9.50;;;6.43;;
36599;SDS011;35385;55.668;37.508;2023-01-29T05:42:21;9.37;;;7.00;;
36599;SDS011;35385;55.668;37.508;2023-01-29T05:43:23;9.52;;;5.93;;
36599;SDS011;35385;55.668;37.508;2023-01-29T05:44:25;10.70;;;6.53;;
36599;SDS011;35385;55.668;37.508;2023-01-29T05:45:25;9.87;;;6.57;;
36599;SDS011;35385;55.668;37.508;2023-01-29T05:46:26;11.20;;;6.83;;
36599;SDS011;35385;55.668;37.508;2023-01-29T05:47:26;10.47;;;6.23;;
36599;SDS011;35385;55.668;37.508;2023-01-29T05:48:27;9.53;;;6.13;;
36599;SDS011;35385;55.668;37.508;2023-01-29T05:49:28;7.75;;;5.65;;
36599;SDS011;35385;55.668;37.508;2023-01-29T05:50:29;10.07;;;6.03;;
36599;SDS011;35385;55.668;37.508;2023-01-29T05:51:29;10.03;;;6.83;;
36599;SDS011;35385;55.668;37.508;2023-01-29T05:52:30;9.87;;;6.23;;
36599;SDS011;35385;55.668;37.508;2023-01-29T05:53:31;8.97;;;6.13;;
36599;SDS011;35385;55.668;37.508;2023-01-29T05:54:32;8.73;;;5.85;;
36599;SDS011;35385;55.668;37.508;2023-01-29T05:55:33;10.87;;;6.17;;
36599;SDS011;35385;55.668;37.508;2023-01-29T05:56:33;9.00;;;5.67;;
36599;SDS011;35385;55.668;37.508;2023-01-29T05:57:34;7.37;;;5.50;;
36599;SDS011;35385;55.668;37.508;2023-01-29T05:58:34;8.37;;;5.73;;
36599;SDS011;35385;55.668;37.508;2023-01-29T05:59:35;8.73;;;5.80;;
36599;SDS011;35385;55.668;37.508;2023-01-29T06:00:36;8.03;;;5.80;;
36599;SDS011;35385;55.668;37.508;2023-01-29T06:01:37;11.00;;;6.38;;
36599;SDS011;35385;55.668;37.508;2023-01-29T06:02:38;11.77;;;6.50;;
36599;SDS011;35385;55.668;37.508;2023-01-29T06:03:39;8.90;;;6.10;;
36599;SDS011;35385;55.668;37.508;2023-01-29T06:04:40;10.77;;;6.60;;
36599;SDS011;35385;55.668;37.508;2023-01-29T06:05:40;8.00;;;6.07;;
36599;SDS011;35385;55.668;37.508;2023-01-29T06:06:41;10.20;;;6.30;;
36599;SDS011;35385;55.668;37.508;2023-01-29T06:07:41;9.80;;;6.27;;
36599;SDS011;35385;55.668;37.508;2023-01-29T06:08:44;9.25;;;5.43;;
36599;SDS011;35385;55.668;37.508;2023-01-29T06:09:45;9.02;;;5.93;;
36599;SDS011;35385;55.668;37.508;2023-01-29T06:10:45;9.53;;;6.10;;
36599;SDS011;35385;55.668;37.508;2023-01-29T06:11:46;9.33;;;5.90;;
36599;SDS011;35385;55.668;37.508;2023-01-29T06:12:46;7.63;;;5.77;;
36599;SDS011;35385;55.668;37.508;2023-01-29T06:13:47;10.47;;;5.33;;
36599;SDS011;35385;55.668;37.508;2023-01-29T06:14:48;9.13;;;5.88;;
36599;SDS011;35385;55.668;37.508;2023-01-29T06:15:48;8.60;;;6.00;;
36599;SDS011;35385;55.668;37.508;2023-01-29T06:16:49;9.53;;;6.00;;
36599;SDS011;35385;55.668;37.508;2023-01-29T06:17:49;8.17;;;5.33;;
36599;SDS011;35385;55.668;37.508;2023-01-29T06:18:52;9.98;;;5.65;;
36599;SDS011;35385;55.668;37.508;2023-01-29T06:19:52;7.43;;;5.37;;
36599;SDS011;35385;55.668;37.508;2023-01-29T06:20:53;8.30;;;5.93;;
36599;SDS011;35385;55.668;37.508;2023-01-29T06:21:53;8.60;;;5.70;;
36599;SDS011;35385;55.668;37.508;2023-01-29T06:22:54;10.43;;;6.23;;
36599;SDS011;35385;55.668;37.508;2023-01-29T06:23:54;9.20;;;5.53;;
36599;SDS011;35385;55.668;37.508;2023-01-29T06:24:55;9.13;;;6.13;;
36599;SDS011;35385;55.668;37.508;2023-01-29T06:26:03;8.07;;;5.30;;
36599;SDS011;35385;55.668;37.508;2023-01-29T06:27:06;7.65;;;5.18;;
36599;SDS011;35385;55.668;37.508;2023-01-29T06:28:07;7.53;;;5.57;;
36599;SDS011;35385;55.668;37.508;2023-01-29T06:29:07;8.10;;;5.83;;
36599;SDS011;35385;55.668;37.508;2023-01-29T06:30:08;8.60;;;5.37;;
36599;SDS011;35385;55.668;37.508;2023-01-29T06:31:09;8.32;;;4.75;;
36599;SDS011;35385;55.668;37.508;2023-01-29T06:32:10;7.50;;;4.85;;
36599;SDS011;35385;55.668;37.508;2023-01-29T06:33:11;6.43;;;4.83;;
36599;SDS011;35385;55.668;37.508;2023-01-29T06:34:11;7.27;;;4.70;;
36599;SDS011;35385;55.668;37.508;2023-01-29T06:35:12;7.23;;;4.70;;
36599;SDS011;35385;55.668;37.508;2023-01-29T06:36:13;9.85;;;4.80;;
36599;SDS011;35385;55.668;37.508;2023-01-29T06:37:13;7.57;;;4.83;;
36599;SDS011;35385;55.668;37.508;2023-01-29T06:38:14;6.30;;;4.23;;
36599;SDS011;35385;55.668;37.508;2023-01-29T06:39:14;12.30;;;4.80;;
36599;SDS011;35385;55.668;37.508;2023-01-29T06:40:15;6.57;;;4.50;;
36599;SDS011;35385;55.668;37.508;2023-01-29T06:41:16;9.50;;;4.68;;
36599;SDS011;35385;55.668;37.508;2023-01-29T06:42:18;6.68;;;4.80;;
36599;SDS011;35385;55.668;37.508;2023-01-29T06:43:19;7.40;;;4.43;;
36599;SDS011;35385;55.668;37.508;2023-01-29T06:44:21;7.10;;;4.50;;
36599;SDS011;35385;55.668;37.508;2023-01-29T06:45:21;7.80;;;4.60;;
36599;SDS011;35385;55.668;37.508;2023-01-29T06:46:23;6.88;;;4.55;;
36599;SDS011;35385;55.668;37.508;2023-01-29T06:47:23;7.13;;;4.27;;
36599;SDS011;35385;55.668;37.508;2023-01-29T06:48:24;6.67;;;4.20;;
36599;SDS011;35385;55.668;37.508;2023-01-29T06:49:24;5.90;;;4.17;;
36599;SDS011;35385;55.668;37.508;2023-01-29T06:50:25;6.33;;;3.90;;
36599;SDS011;35385;55.668;37.508;2023-01-29T06:51:26;9.27;;;4.40;;
36599;SDS011;35385;55.668;37.508;2023-01-29T06:52:26;7.37;;;4.13;;
36599;SDS011;35385;55.668;37.508;2023-01-29T06:54:28;6.15;;;3.72;;
36599;SDS011;35385;55.668;37.508;2023-01-29T06:55:29;6.57;;;4.40;;
36599;SDS011;35385;55.668;37.508;2023-01-29T06:56:29;6.07;;;3.70;;
36599;SDS011;35385;55.668;37.508;2023-01-29T06:57:30;5.67;;;4.00;;
36599;SDS011;35385;55.668;37.508;2023-01-29T06:58:30;6.47;;;3.80;;
36599;SDS011;35385;55.668;37.508;2023-01-29T06:59:31;6.97;;;3.97;;
36599;SDS011;35385;55.668;37.508;2023-01-29T07:00:32;7.20;;;3.87;;
36599;SDS011;35385;55.668;37.508;2023-01-29T07:01:33;6.82;;;4.22;;
36599;SDS011;35385;55.668;37.508;2023-01-29T07:02:33;5.63;;;3.83;;
36599;SDS011;35385;55.668;37.508;2023-01-29T07:03:34;6.00;;;3.87;;
36599;SDS011;35385;55.668;37.508;2023-01-29T07:04:35;7.07;;;4.07;;
36599;SDS011;35385;55.668;37.508;2023-01-29T07:06:37;5.82;;;4.05;;
36599;SDS011;35385;55.668;37.508;2023-01-29T07:07:37;6.03;;;3.80;;
36599;SDS011;35385;55.668;37.508;2023-01-29T07:08:38;6.87;;;4.30;;
36599;SDS011;35385;55.668;37.508;2023-01-29T07:09:40;8.40;;;4.53;;
36599;SDS011;35385;55.668;37.508;2023-01-29T07:10:41;6.47;;;3.78;;
36599;SDS011;35385;55.668;37.508;2023-01-29T07:11:42;4.63;;;3.60;;
36599;SDS011;35385;55.668;37.508;2023-01-29T07:12:42;5.13;;;3.70;;
36599;SDS011;35385;55.668;37.508;2023-01-29T07:13:43;6.47;;;3.97;;
36599;SDS011;35385;55.668;37.508;2023-01-29T07:14:43;5.00;;;3.90;;
36599;SDS011;35385;55.668;37.508;2023-01-29T07:15:44;6.13;;;4.10;;
36599;SDS011;35385;55.668;37.508;2023-01-29T07:16:45;8.43;;;4.43;;
36599;SDS011;35385;55.668;37.508;2023-01-29T07:17:58;6.97;;;3.93;;
36599;SDS011;35385;55.668;37.508;2023-01-29T07:19:00;7.30;;;4.40;;
36599;SDS011;35385;55.668;37.508;2023-01-29T07:20:00;5.90;;;4.00;;
36599;SDS011;35385;55.668;37.508;2023-01-29T07:21:04;7.17;;;4.20;;
36599;SDS011;35385;55.668;37.508;2023-01-29T07:22:06;6.97;;;4.32;;
36599;SDS011;35385;55.668;37.508;2023-01-29T07:23:10;7.27;;;4.33;;
36599;SDS011;35385;55.668;37.508;2023-01-29T07:24:11;6.07;;;4.47;;